Time;durP1;ratioP1;P1;durP2;ratioP2;P2;SDS_P1;SDS_P2;PMS_P1;PMS_P2;Temp;Humidity;BMP_temperature;BMP_pressure;BME280_temperature;BME280_humidity;BME280_pressure;Samples;Min_cycle;Max_cycle;Signal;HPM_P1;HPM_P2
2023/09/28 00:00:35;;;;;;;3.95;3.55;;;;;;;;;;5122504;27;41936;-72
2023/09/28 00:02:50;;;;;;;6.63;3.42;;;;;;;;;;5124445;27;41372;-73
2023/09/28 00:05:19;;;;;;;5.05;2.85;;;;;;;;;;5127168;27;41748;-72
2023/09/28 00:07:47;;;;;;;3.25;2.88;;;;;;;;;;5126744;27;43431;-72
2023/09/28 00:10:15;;;;;;;3.05;2.83;;;;;;;;;;5128392;27;40723;-72
2023/09/28 00:12:43;;;;;;;3.17;2.90;;;;;;;;;;5126139;27;41701;-73
2023/09/28 00:15:12;;;;;;;3.88;3.50;;;;;;;;;;5128160;27;41012;-72
2023/09/28 00:17:40;;;;;;;2.75;2.45;;;;;;;;;;5126293;27;42149;-72
2023/09/28 00:20:10;;;;;;;3.58;3.03;;;;;;;;;;5127762;27;41846;-72
2023/09/28 00:22:38;;;;;;;3.47;2.90;;;;;;;;;;5126965;27;41521;-72
2023/09/28 00:25:10;;;;;;;3.45;3.15;;;;;;;;;;5126530;27;42603;-73
2023/09/28 00:27:38;;;;;;;4.80;3.05;;;;;;;;;;5122458;27;42021;-72
2023/09/28 00:30:06;;;;;;;4.38;3.03;;;;;;;;;;5109659;27;40113;-72
2023/09/28 00:32:36;;;;;;;5.93;2.97;;;;;;;;;;5128048;27;41957;-72
2023/09/28 00:35:04;;;;;;;3.50;2.95;;;;;;;;;;5110372;27;39203;-73
2023/09/28 00:37:33;;;;;;;3.55;3.10;;;;;;;;;;5110220;27;39791;-72
2023/09/28 00:40:01;;;;;;;4.10;3.45;;;;;;;;;;5126706;27;40662;-72
2023/09/28 00:42:29;;;;;;;3.33;2.92;;;;;;;;;;5109715;27;40772;-72
2023/09/28 00:44:56;;;;;;;2.75;2.53;;;;;;;;;;5128369;27;41825;-72
2023/09/28 00:47:24;;;;;;;3.25;2.80;;;;;;;;;;5109301;27;40445;-73
2023/09/28 00:49:54;;;;;;;3.15;2.85;;;;;;;;;;5128044;27;42112;-72
2023/09/28 00:52:23;;;;;;;3.00;2.70;;;;;;;;;;5128449;27;42275;-72
2023/09/28 00:54:50;;;;;;;3.15;2.85;;;;;;;;;;5127506;27;42217;-72
2023/09/28 00:57:19;;;;;;;2.88;2.58;;;;;;;;;;5128586;27;42135;-73
2023/09/28 00:59:46;;;;;;;3.03;2.60;;;;;;;;;;5106317;27;41484;-72
2023/09/28 01:02:14;;;;;;;2.67;2.47;;;;;;;;;;5106052;28;40841;-72
2023/09/28 01:04:41;;;;;;;3.20;2.90;;;;;;;;;;5125404;27;42430;-72
2023/09/28 01:07:14;;;;;;;4.50;2.78;;;;;;;;;;5108301;27;40505;-73
2023/09/28 01:09:41;;;;;;;3.58;3.28;;;;;;;;;;5107933;27;39849;-73
2023/09/28 01:12:09;;;;;;;3.03;2.78;;;;;;;;;;5128523;27;41312;-72
2023/09/28 01:14:37;;;;;;;3.67;2.70;;;;;;;;;;5126076;27;42866;-73
2023/09/28 01:17:07;;;;;;;3.08;2.70;;;;;;;;;;5127996;27;42006;-72
2023/09/28 01:19:35;;;;;;;2.53;2.22;;;;;;;;;;5125688;27;43068;-73
2023/09/28 01:22:03;;;;;;;2.92;2.70;;;;;;;;;;5110577;27;39904;-72
2023/09/28 01:24:33;;;;;;;2.85;2.63;;;;;;;;;;5127007;27;42235;-72
2023/09/28 01:27:01;;;;;;;2.53;2.30;;;;;;;;;;5125880;27;43297;-72
2023/09/28 01:29:30;;;;;;;4.70;2.63;;;;;;;;;;5126117;27;40864;-73
2023/09/28 01:31:58;;;;;;;3.33;2.92;;;;;;;;;;5128025;27;41839;-72
2023/09/28 01:34:25;;;;;;;4.05;2.90;;;;;;;;;;5127869;27;43078;-74
2023/09/28 01:36:53;;;;;;;3.15;2.42;;;;;;;;;;5108837;27;39769;-72
2023/09/28 01:39:20;;;;;;;3.05;2.75;;;;;;;;;;5128115;27;41698;-72
2023/09/28 01:41:50;;;;;;;5.20;2.80;;;;;;;;;;5127551;27;41436;-73
2023/09/28 01:44:18;;;;;;;2.83;2.53;;;;;;;;;;5109255;27;39569;-72
2023/09/28 01:46:45;;;;;;;6.78;2.55;;;;;;;;;;5128574;27;43510;-72
2023/09/28 01:49:13;;;;;;;3.55;3.25;;;;;;;;;;5127608;27;41011;-73
2023/09/28 01:51:41;;;;;;;3.72;2.42;;;;;;;;;;5109020;27;40433;-73
2023/09/28 01:54:09;;;;;;;2.88;2.55;;;;;;;;;;5127493;27;42262;-72
2023/09/28 01:56:37;;;;;;;2.97;2.67;;;;;;;;;;5126669;27;41380;-73
2023/09/28 01:59:06;;;;;;;4.10;2.83;;;;;;;;;;5108516;27;40367;-72
2023/09/28 02:01:34;;;;;;;3.35;2.72;;;;;;;;;;5105093;27;40683;-72
2023/09/28 02:04:01;;;;;;;2.88;2.58;;;;;;;;;;5126097;27;41874;-72
2023/09/28 02:06:29;;;;;;;3.03;2.58;;;;;;;;;;5125237;27;42126;-72
2023/09/28 02:08:56;;;;;;;2.50;2.30;;;;;;;;;;5123289;27;42238;-73
2023/09/28 02:11:24;;;;;;;2.72;2.40;;;;;;;;;;5128285;27;41831;-73
2023/09/28 02:13:52;;;;;;;2.90;2.28;;;;;;;;;;5107353;27;42537;-73
2023/09/28 02:16:22;;;;;;;2.45;2.25;;;;;;;;;;5126878;27;42537;-72
2023/09/28 02:18:50;;;;;;;2.80;2.38;;;;;;;;;;5123171;27;40790;-73
2023/09/28 02:21:18;;;;;;;2.63;2.42;;;;;;;;;;5125293;27;42910;-73
2023/09/28 02:23:46;;;;;;;3.50;2.63;;;;;;;;;;5123181;27;42041;-72
2023/09/28 02:26:14;;;;;;;2.75;2.20;;;;;;;;;;5125849;27;43144;-73
2023/09/28 02:28:41;;;;;;;2.40;2.20;;;;;;;;;;5127502;27;42593;-73
2023/09/28 02:31:09;;;;;;;2.65;2.45;;;;;;;;;;5109873;27;40682;-74
2023/09/28 02:33:38;;;;;;;2.60;2.30;;;;;;;;;;5129849;27;42083;-74
2023/09/28 02:36:06;;;;;;;2.70;2.50;;;;;;;;;;5111715;27;39848;-72
2023/09/28 02:38:33;;;;;;;2.28;2.08;;;;;;;;;;5126624;27;41038;-72
2023/09/28 02:41:02;;;;;;;2.55;2.35;;;;;;;;;;5111568;27;40804;-72
2023/09/28 02:43:31;;;;;;;2.63;2.40;;;;;;;;;;5129899;27;42347;-72
2023/09/28 02:45:59;;;;;;;2.90;2.63;;;;;;;;;;5130064;27;43117;-73
2023/09/28 02:48:29;;;;;;;2.83;2.63;;;;;;;;;;5130274;27;41342;-72
2023/09/28 02:50:57;;;;;;;2.53;2.33;;;;;;;;;;5111470;27;40395;-72
2023/09/28 02:53:27;;;;;;;3.00;2.40;;;;;;;;;;5111811;27;41669;-72
2023/09/28 02:55:54;;;;;;;3.33;2.50;;;;;;;;;;5130194;27;41321;-73
2023/09/28 02:58:24;;;;;;;2.65;2.10;;;;;;;;;;5098877;28;40117;-72
2023/09/28 03:00:53;;;;;;;2.33;2.13;;;;;;;;;;5105480;27;40721;-72
2023/09/28 03:03:21;;;;;;;3.17;2.28;;;;;;;;;;5127906;27;42474;-73
2023/09/28 03:05:48;;;;;;;2.97;2.67;;;;;;;;;;5126541;27;41411;-73
2023/09/28 03:08:19;;;;;;;2.60;2.40;;;;;;;;;;5129158;27;40881;-72
2023/09/28 03:10:46;;;;;;;3.10;2.47;;;;;;;;;;5109374;27;40377;-72
2023/09/28 03:13:14;;;;;;;2.25;2.05;;;;;;;;;;5129525;27;42118;-72
2023/09/28 03:15:43;;;;;;;2.40;2.00;;;;;;;;;;5108664;27;39762;-73
2023/09/28 03:18:12;;;;;;;2.65;2.45;;;;;;;;;;5111224;27;40190;-72
2023/09/28 03:20:42;;;;;;;2.22;2.03;;;;;;;;;;5128079;27;43195;-72
2023/09/28 03:23:11;;;;;;;2.38;2.17;;;;;;;;;;5127741;27;41875;-73
2023/09/28 03:25:39;;;;;;;2.47;2.28;;;;;;;;;;5125988;27;42562;-72
2023/09/28 03:28:07;;;;;;;2.55;2.35;;;;;;;;;;5127675;27;42726;-72
2023/09/28 03:30:34;;;;;;;2.78;2.35;;;;;;;;;;5128954;27;41446;-72
2023/09/28 03:33:03;;;;;;;2.75;2.30;;;;;;;;;;5129333;27;42318;-73
2023/09/28 03:35:30;;;;;;;2.70;2.30;;;;;;;;;;5128456;27;42052;-72
2023/09/28 03:37:58;;;;;;;2.72;2.53;;;;;;;;;;5129904;27;42194;-73
2023/09/28 03:40:33;;;;;;;3.08;2.58;;;;;;;;;;5128591;27;43080;-72
2023/09/28 03:43:03;;;;;;;2.95;2.65;;;;;;;;;;5110983;27;41041;-72
2023/09/28 03:45:31;;;;;;;2.65;2.42;;;;;;;;;;5129106;27;41412;-72
2023/09/28 03:47:59;;;;;;;2.58;2.38;;;;;;;;;;5128849;27;43277;-73
2023/09/28 03:50:27;;;;;;;2.30;2.10;;;;;;;;;;5128435;27;42117;-72
2023/09/28 03:52:56;;;;;;;3.00;2.25;;;;;;;;;;5129205;27;42023;-73
2023/09/28 03:55:24;;;;;;;2.83;2.50;;;;;;;;;;5128449;27;41751;-73
2023/09/28 03:57:52;;;;;;;2.58;2.35;;;;;;;;;;5128604;27;41946;-72
2023/09/28 04:00:22;;;;;;;4.85;2.78;;;;;;;;;;5129359;27;43584;-72
2023/09/28 04:02:50;;;;;;;2.70;2.50;;;;;;;;;;5128623;27;41790;-72
2023/09/28 04:05:23;;;;;;;2.75;2.25;;;;;;;;;;5126591;27;41721;-72
2023/09/28 04:07:51;;;;;;;3.28;2.50;;;;;;;;;;5129430;27;40682;-72
2023/09/28 04:10:20;;;;;;;2.28;2.08;;;;;;;;;;5128515;27;41266;-73
2023/09/28 04:12:52;;;;;;;2.53;2.33;;;;;;;;;;5126347;27;41726;-72
2023/09/28 04:15:22;;;;;;;2.67;2.45;;;;;;;;;;5129367;27;41341;-73
2023/09/28 04:17:50;;;;;;;2.40;2.20;;;;;;;;;;5128870;27;41624;-73
2023/09/28 04:20:19;;;;;;;2.90;2.60;;;;;;;;;;5128675;27;42765;-72
2023/09/28 04:22:47;;;;;;;2.38;2.17;;;;;;;;;;5128783;27;42019;-73
2023/09/28 04:25:16;;;;;;;2.42;2.22;;;;;;;;;;5128154;27;41775;-73
2023/09/28 04:27:44;;;;;;;2.28;2.08;;;;;;;;;;5127969;27;41789;-72
2023/09/28 04:30:12;;;;;;;3.10;2.25;;;;;;;;;;5129356;27;41325;-73
2023/09/28 04:32:42;;;;;;;2.53;2.33;;;;;;;;;;5128097;27;42650;-73
2023/09/28 04:35:13;;;;;;;2.47;2.13;;;;;;;;;;5128751;27;42205;-72
2023/09/28 04:37:41;;;;;;;3.00;2.10;;;;;;;;;;5127438;27;41688;-72
2023/09/28 04:40:10;;;;;;;2.30;2.10;;;;;;;;;;5128879;27;42826;-72
2023/09/28 04:42:39;;;;;;;3.67;2.38;;;;;;;;;;5127692;27;40416;-73
2023/09/28 04:45:08;;;;;;;2.55;2.35;;;;;;;;;;5128270;27;42420;-72
2023/09/28 04:47:36;;;;;;;2.30;2.10;;;;;;;;;;5127655;27;42241;-72
2023/09/28 04:50:08;;;;;;;2.30;2.10;;;;;;;;;;5129033;27;41352;-72
2023/09/28 04:52:36;;;;;;;2.60;2.40;;;;;;;;;;5125895;27;41713;-72
2023/09/28 04:55:05;;;;;;;2.70;2.15;;;;;;;;;;5129341;27;43408;-72
2023/09/28 04:57:35;;;;;;;2.33;2.13;;;;;;;;;;5127425;27;42692;-72
2023/09/28 05:00:06;;;;;;;2.50;2.25;;;;;;;;;;5126662;27;41875;-72
2023/09/28 05:02:34;;;;;;;2.10;1.90;;;;;;;;;;5112388;27;41243;-73
2023/09/28 05:05:03;;;;;;;2.97;2.40;;;;;;;;;;5128447;27;41324;-73
2023/09/28 05:07:33;;;;;;;2.80;2.25;;;;;;;;;;5108202;27;41564;-72
2023/09/28 05:10:01;;;;;;;2.70;2.47;;;;;;;;;;5128005;27;41890;-73
2023/09/28 05:12:29;;;;;;;2.42;2.20;;;;;;;;;;5127603;27;41811;-74
2023/09/28 05:14:58;;;;;;;2.33;2.13;;;;;;;;;;5127009;27;42393;-72
2023/09/28 05:17:26;;;;;;;2.20;2.00;;;;;;;;;;5127791;27;41269;-72
2023/09/28 05:19:54;;;;;;;2.60;2.40;;;;;;;;;;5127299;27;43442;-72
2023/09/28 05:22:22;;;;;;;2.75;2.40;;;;;;;;;;5126983;27;41958;-72
2023/09/28 05:24:53;;;;;;;2.85;2.30;;;;;;;;;;5128029;27;41450;-72
2023/09/28 05:27:21;;;;;;;2.60;2.40;;;;;;;;;;5126665;27;42054;-73
2023/09/28 05:29:50;;;;;;;2.65;2.42;;;;;;;;;;5127841;27;41724;-73
2023/09/28 05:32:17;;;;;;;2.65;2.40;;;;;;;;;;5127017;27;41990;-72
2023/09/28 05:34:46;;;;;;;2.70;2.50;;;;;;;;;;5126321;27;41850;-72
2023/09/28 05:37:14;;;;;;;2.80;2.10;;;;;;;;;;5128581;27;41198;-72
2023/09/28 05:39:42;;;;;;;2.58;2.38;;;;;;;;;;5126674;27;41643;-72
2023/09/28 05:42:12;;;;;;;2.42;2.22;;;;;;;;;;5114891;27;42367;-73
2023/09/28 05:44:40;;;;;;;2.40;2.20;;;;;;;;;;5127252;27;41627;-72
2023/09/28 05:47:08;;;;;;;3.17;2.70;;;;;;;;;;5128420;27;42184;-73
2023/09/28 05:49:36;;;;;;;2.70;2.38;;;;;;;;;;5126896;27;42419;-72
2023/09/28 05:52:05;;;;;;;2.35;2.00;;;;;;;;;;5128023;27;42315;-73
2023/09/28 05:54:33;;;;;;;2.95;2.28;;;;;;;;;;5127166;27;42018;-72
2023/09/28 05:57:01;;;;;;;2.10;1.90;;;;;;;;;;5126683;27;42332;-72
2023/09/28 05:59:30;;;;;;;2.95;2.40;;;;;;;;;;5108533;27;39799;-74
2023/09/28 06:01:58;;;;;;;1.98;1.80;;;;;;;;;;5128009;27;42885;-72
2023/09/28 06:04:26;;;;;;;2.35;2.15;;;;;;;;;;5129695;27;42692;-72
2023/09/28 06:06:54;;;;;;;2.28;2.08;;;;;;;;;;5131205;27;42836;-72
2023/09/28 06:09:22;;;;;;;3.72;2.25;;;;;;;;;;5130772;27;40891;-72
2023/09/28 06:11:52;;;;;;;2.33;2.13;;;;;;;;;;5131401;27;41514;-72
2023/09/28 06:14:20;;;;;;;2.50;2.30;;;;;;;;;;5130691;27;42884;-72
2023/09/28 06:16:49;;;;;;;2.30;2.10;;;;;;;;;;5130592;27;40943;-73
2023/09/28 06:19:17;;;;;;;2.60;2.40;;;;;;;;;;5131004;27;41522;-72
2023/09/28 06:21:45;;;;;;;2.60;2.20;;;;;;;;;;5130831;27;42178;-72
2023/09/28 06:24:13;;;;;;;2.38;2.17;;;;;;;;;;5130145;27;41856;-72
2023/09/28 06:26:42;;;;;;;2.92;2.53;;;;;;;;;;5131271;27;41942;-72
2023/09/28 06:29:11;;;;;;;2.90;2.55;;;;;;;;;;5130609;27;40820;-72
2023/09/28 06:31:39;;;;;;;2.42;2.22;;;;;;;;;;5129587;27;41916;-72
2023/09/28 06:34:08;;;;;;;2.65;2.15;;;;;;;;;;5130996;27;43074;-72
2023/09/28 06:36:36;;;;;;;2.47;2.28;;;;;;;;;;5129996;27;41878;-72
2023/09/28 06:39:09;;;;;;;2.90;2.40;;;;;;;;;;5127012;27;41094;-73
2023/09/28 06:41:38;;;;;;;2.58;2.05;;;;;;;;;;5130301;27;41660;-72
2023/09/28 06:44:08;;;;;;;2.08;1.90;;;;;;;;;;5131007;27;41189;-72
2023/09/28 06:46:36;;;;;;;2.60;1.90;;;;;;;;;;5129577;27;41694;-72
2023/09/28 06:49:05;;;;;;;2.45;2.25;;;;;;;;;;5129816;27;41193;-73
2023/09/28 06:51:34;;;;;;;2.95;2.63;;;;;;;;;;5129434;27;42383;-72
2023/09/28 06:54:03;;;;;;;3.28;2.10;;;;;;;;;;5129555;27;42269;-72
2023/09/28 06:56:31;;;;;;;2.55;2.28;;;;;;;;;;5129629;27;41604;-72
2023/09/28 06:58:59;;;;;;;2.47;2.28;;;;;;;;;;5129270;27;41927;-72
2023/09/28 07:01:27;;;;;;;2.50;2.30;;;;;;;;;;5129122;27;43737;-72
2023/09/28 07:03:55;;;;;;;2.17;1.98;;;;;;;;;;5130114;27;41102;-72
2023/09/28 07:06:24;;;;;;;2.47;2.28;;;;;;;;;;5129889;27;41395;-74
2023/09/28 07:08:53;;;;;;;2.95;2.20;;;;;;;;;;5130381;27;40835;-73
2023/09/28 07:11:22;;;;;;;4.25;3.47;;;;;;;;;;5129476;27;42454;-73
2023/09/28 07:13:50;;;;;;;2.50;2.28;;;;;;;;;;5128939;27;42527;-73
2023/09/28 07:16:18;;;;;;;3.70;2.60;;;;;;;;;;5128978;27;41682;-73
2023/09/28 07:18:46;;;;;;;3.58;2.85;;;;;;;;;;5129439;27;42614;-72
2023/09/28 07:21:14;;;;;;;2.72;2.53;;;;;;;;;;5129293;27;42224;-72
2023/09/28 07:23:42;;;;;;;3.83;2.83;;;;;;;;;;5128748;27;41625;-72
2023/09/28 07:26:16;;;;;;;5.90;3.40;;;;;;;;;;5128962;27;41561;-73
2023/09/28 07:28:44;;;;;;;7.10;4.05;;;;;;;;;;5128984;27;43222;-72
2023/09/28 07:31:13;;;;;;;3.35;2.50;;;;;;;;;;5130373;27;41737;-72
2023/09/28 07:33:41;;;;;;;5.25;3.20;;;;;;;;;;5128550;27;42062;-72
2023/09/28 07:36:09;;;;;;;4.25;3.20;;;;;;;;;;5129454;27;42264;-73
2023/09/28 07:38:37;;;;;;;5.05;2.85;;;;;;;;;;5129974;27;41836;-73
2023/09/28 07:41:05;;;;;;;6.80;3.08;;;;;;;;;;5129039;27;42114;-73
2023/09/28 07:43:35;;;;;;;6.85;3.10;;;;;;;;;;5128814;27;41295;-72
2023/09/28 07:46:03;;;;;;;4.63;2.75;;;;;;;;;;5129615;27;42257;-72
2023/09/28 07:48:31;;;;;;;11.82;3.80;;;;;;;;;;5128650;27;43011;-71
2023/09/28 07:50:59;;;;;;;4.28;2.63;;;;;;;;;;5129990;27;42798;-70
2023/09/28 07:53:28;;;;;;;7.60;2.53;;;;;;;;;;5129352;27;42081;-71
2023/09/28 07:55:56;;;;;;;6.68;3.13;;;;;;;;;;5127644;27;41093;-72
2023/09/28 07:58:24;;;;;;;8.15;3.08;;;;;;;;;;5129485;27;42700;-72
2023/09/28 08:00:56;;;;;;;7.07;3.03;;;;;;;;;;5126684;27;42841;-71
2023/09/28 08:03:26;;;;;;;5.22;2.60;;;;;;;;;;5128548;27;41923;-72
2023/09/28 08:05:54;;;;;;;8.07;3.05;;;;;;;;;;5129179;27;41734;-73
2023/09/28 08:08:23;;;;;;;4.38;2.67;;;;;;;;;;5128925;27;42635;-72
2023/09/28 08:10:51;;;;;;;6.35;2.97;;;;;;;;;;5117585;27;42102;-72
2023/09/28 08:13:19;;;;;;;7.57;2.90;;;;;;;;;;5118661;27;42989;-74
2023/09/28 08:15:48;;;;;;;7.57;2.70;;;;;;;;;;5126389;27;41535;-73
2023/09/28 08:18:17;;;;;;;8.45;3.38;;;;;;;;;;5118051;27;41090;-73
2023/09/28 08:20:47;;;;;;;7.80;2.53;;;;;;;;;;5125049;27;41603;-74
2023/09/28 08:23:36;;;;;;;10.25;3.20;;;;;;;;;;5123208;27;40907;-74
2023/09/28 08:26:04;;;;;;;8.00;2.70;;;;;;;;;;5121613;27;42028;-74
2023/09/28 08:28:32;;;;;;;9.93;3.05;;;;;;;;;;5126709;27;43067;-72
2023/09/28 08:31:03;;;;;;;6.70;2.72;;;;;;;;;;5124894;27;40974;-74
2023/09/28 08:33:33;;;;;;;9.07;2.78;;;;;;;;;;5126348;27;41379;-74
2023/09/28 08:36:01;;;;;;;11.80;3.60;;;;;;;;;;5125797;27;34166;-72
2023/09/28 08:38:28;;;;;;;6.68;2.53;;;;;;;;;;5127265;27;42388;-72
2023/09/28 08:40:59;;;;;;;8.52;2.83;;;;;;;;;;5126841;27;41721;-72
2023/09/28 08:43:28;;;;;;;14.80;3.63;;;;;;;;;;5125731;27;42333;-73
2023/09/28 08:45:56;;;;;;;8.60;3.15;;;;;;;;;;5118628;27;42044;-74
2023/09/28 08:48:26;;;;;;;9.85;2.83;;;;;;;;;;5125875;27;41532;-73
2023/09/28 08:50:56;;;;;;;12.80;3.75;;;;;;;;;;5126114;27;41336;-72
2023/09/28 08:53:24;;;;;;;13.18;3.22;;;;;;;;;;5122588;27;41973;-72
2023/09/28 08:55:52;;;;;;;12.23;3.05;;;;;;;;;;5126985;27;42908;-73
2023/09/28 08:58:21;;;;;;;7.82;2.67;;;;;;;;;;5126038;27;42736;-72
2023/09/28 09:00:49;;;;;;;13.95;3.00;;;;;;;;;;5124867;27;43741;-73
2023/09/28 09:03:17;;;;;;;13.02;3.28;;;;;;;;;;5126576;27;40983;-73
2023/09/28 09:05:46;;;;;;;9.20;2.90;;;;;;;;;;5122755;27;42026;-73
2023/09/28 09:08:15;;;;;;;12.43;3.63;;;;;;;;;;5126686;27;41997;-74
2023/09/28 09:10:43;;;;;;;8.55;3.00;;;;;;;;;;5106317;27;39947;-74
2023/09/28 09:13:17;;;;;;;8.82;2.50;;;;;;;;;;5117400;27;40537;-73
2023/09/28 09:15:45;;;;;;;7.63;2.80;;;;;;;;;;5121420;27;41761;-73
2023/09/28 09:18:16;;;;;;;15.98;4.15;;;;;;;;;;5122687;27;41967;-73
2023/09/28 09:20:46;;;;;;;10.30;3.40;;;;;;;;;;5122484;27;41724;-72
2023/09/28 09:23:15;;;;;;;13.90;3.45;;;;;;;;;;5124986;27;41626;-73
2023/09/28 09:25:43;;;;;;;10.18;2.90;;;;;;;;;;5125185;27;41427;-75
2023/09/28 09:28:12;;;;;;;12.80;3.65;;;;;;;;;;5124328;27;42726;-72
2023/09/28 09:30:40;;;;;;;14.35;4.20;;;;;;;;;;5125310;27;40764;-72
2023/09/28 09:33:08;;;;;;;14.23;3.88;;;;;;;;;;5124374;27;41331;-73
2023/09/28 09:35:38;;;;;;;18.05;4.65;;;;;;;;;;5126352;27;42870;-74
2023/09/28 09:38:06;;;;;;;17.85;4.80;;;;;;;;;;5124101;27;44092;-71
2023/09/28 09:40:36;;;;;;;20.08;4.25;;;;;;;;;;5106823;27;40173;-72
2023/09/28 09:43:07;;;;;;;13.95;3.97;;;;;;;;;;5125092;27;41401;-72
2023/09/28 09:45:36;;;;;;;17.85;4.30;;;;;;;;;;5125408;27;43163;-72
2023/09/28 09:48:05;;;;;;;19.30;4.22;;;;;;;;;;5125465;27;41811;-73
2023/09/28 09:50:35;;;;;;;19.98;4.65;;;;;;;;;;5125213;27;41011;-73
2023/09/28 09:53:03;;;;;;;26.25;5.07;;;;;;;;;;5125974;27;41732;-72
2023/09/28 09:55:31;;;;;;;21.23;4.70;;;;;;;;;;5124300;27;41604;-73
2023/09/28 09:58:02;;;;;;;20.10;4.97;;;;;;;;;;5125807;27;41534;-74
2023/09/28 10:00:31;;;;;;;27.42;5.15;;;;;;;;;;5124597;27;41968;-75
2023/09/28 10:02:59;;;;;;;21.48;5.00;;;;;;;;;;5116537;27;41842;-73
2023/09/28 10:05:27;;;;;;;16.73;4.57;;;;;;;;;;5125544;27;42224;-77
2023/09/28 10:07:57;;;;;;;24.42;5.15;;;;;;;;;;5122107;27;42687;-74
2023/09/28 10:10:27;;;;;;;20.35;5.03;;;;;;;;;;5114749;27;41059;-74
2023/09/28 10:12:55;;;;;;;24.30;5.00;;;;;;;;;;5122852;27;41260;-73
2023/09/28 10:15:25;;;;;;;23.15;4.60;;;;;;;;;;5121430;27;41630;-72
2023/09/28 10:17:53;;;;;;;22.10;4.88;;;;;;;;;;5124392;27;41053;-73
2023/09/28 10:20:21;;;;;;;18.33;4.70;;;;;;;;;;5125980;27;41206;-75
2023/09/28 10:22:49;;;;;;;19.50;4.22;;;;;;;;;;5105804;27;41008;-75
2023/09/28 10:25:17;;;;;;;21.98;5.70;;;;;;;;;;5118339;27;41751;-74
2023/09/28 10:27:46;;;;;;;18.77;4.20;;;;;;;;;;5125255;27;42079;-74
2023/09/28 10:30:18;;;;;;;21.60;4.85;;;;;;;;;;5124636;27;42063;-75
2023/09/28 10:32:48;;;;;;;25.48;4.95;;;;;;;;;;5105877;27;40969;-74
2023/09/28 10:35:27;;;;;;;17.10;4.75;;;;;;;;;;5116922;27;42471;-75
2023/09/28 10:38:13;;;;;;;20.45;4.90;;;;;;;;;;5121012;27;41392;-74
2023/09/28 10:40:41;;;;;;;17.70;5.13;;;;;;;;;;5123328;27;42866;-76
2023/09/28 10:43:27;;;;;;;20.83;5.22;;;;;;;;;;5123827;27;43724;-75
2023/09/28 10:45:55;;;;;;;17.48;5.00;;;;;;;;;;5118269;27;41745;-75
2023/09/28 10:48:24;;;;;;;13.23;4.68;;;;;;;;;;5124206;27;42461;-74
2023/09/28 10:50:53;;;;;;;21.65;5.13;;;;;;;;;;5125523;27;41199;-73
2023/09/28 10:53:21;;;;;;;21.55;4.22;;;;;;;;;;5126724;27;41698;-74
2023/09/28 10:55:49;;;;;;;20.02;5.35;;;;;;;;;;5127528;27;41834;-74
2023/09/28 10:58:17;;;;;;;23.20;5.00;;;;;;;;;;5125108;27;41548;-75
2023/09/28 11:00:45;;;;;;;16.70;4.57;;;;;;;;;;5123734;27;41946;-77
2023/09/28 11:03:13;;;;;;;21.73;5.03;;;;;;;;;;5129998;27;43025;-74
2023/09/28 11:05:43;;;;;;;19.60;4.75;;;;;;;;;;5123262;27;42236;-74
2023/09/28 11:08:13;;;;;;;25.48;5.50;;;;;;;;;;5130633;27;41170;-73
2023/09/28 11:10:42;;;;;;;22.63;5.38;;;;;;;;;;5125716;27;41713;-72
2023/09/28 11:13:10;;;;;;;20.50;4.53;;;;;;;;;;5128856;27;42195;-73
2023/09/28 11:15:38;;;;;;;16.98;4.70;;;;;;;;;;5123695;27;42609;-71
2023/09/28 11:18:07;;;;;;;21.33;4.47;;;;;;;;;;5128984;27;41863;-74
2023/09/28 11:20:35;;;;;;;22.15;4.65;;;;;;;;;;5126727;27;41926;-73
2023/09/28 11:23:05;;;;;;;15.68;4.50;;;;;;;;;;5133755;27;43250;-73
2023/09/28 11:25:33;;;;;;;27.58;4.78;;;;;;;;;;5129817;27;41864;-73
2023/09/28 11:28:13;;;;;;;20.23;5.05;;;;;;;;;;5127590;27;42291;-73
2023/09/28 11:30:41;;;;;;;13.60;4.40;;;;;;;;;;5124881;27;42062;-73
2023/09/28 11:33:09;;;;;;;17.77;5.00;;;;;;;;;;5114369;27;41367;-73
2023/09/28 11:35:38;;;;;;;12.93;4.00;;;;;;;;;;5118030;27;41786;-73
2023/09/28 11:38:09;;;;;;;19.50;4.40;;;;;;;;;;5122441;27;42251;-73
2023/09/28 11:40:38;;;;;;;18.25;4.28;;;;;;;;;;5126976;27;41936;-73
2023/09/28 11:43:06;;;;;;;15.88;4.57;;;;;;;;;;5119561;27;42255;-73
2023/09/28 11:45:34;;;;;;;13.52;4.07;;;;;;;;;;5128051;27;42445;-73
2023/09/28 11:48:04;;;;;;;12.65;3.63;;;;;;;;;;5134656;27;42668;-73
2023/09/28 11:50:32;;;;;;;13.68;4.18;;;;;;;;;;5127458;27;43101;-73
2023/09/28 11:53:00;;;;;;;16.00;4.38;;;;;;;;;;5129620;27;42669;-73
2023/09/28 11:55:30;;;;;;;12.60;3.88;;;;;;;;;;5127073;27;42012;-73
2023/09/28 11:57:59;;;;;;;14.90;3.67;;;;;;;;;;5129084;27;42093;-73
2023/09/28 12:00:27;;;;;;;16.90;3.90;;;;;;;;;;5127489;27;41718;-73
2023/09/28 12:02:55;;;;;;;11.50;3.78;;;;;;;;;;5128145;27;41959;-73
2023/09/28 12:05:23;;;;;;;16.38;4.00;;;;;;;;;;5128056;27;42421;-73
2023/09/28 12:07:51;;;;;;;13.13;3.83;;;;;;;;;;5117719;27;41284;-73
2023/09/28 12:10:19;;;;;;;18.90;4.22;;;;;;;;;;5128648;27;42049;-73
2023/09/28 12:12:49;;;;;;;12.60;3.78;;;;;;;;;;5103899;27;39413;-73
2023/09/28 12:15:19;;;;;;;13.27;4.38;;;;;;;;;;5128551;27;42589;-73
2023/09/28 12:17:47;;;;;;;11.20;4.22;;;;;;;;;;5124573;27;42071;-73
2023/09/28 12:20:15;;;;;;;14.68;3.72;;;;;;;;;;5129453;27;41658;-73
2023/09/28 12:22:43;;;;;;;18.70;4.10;;;;;;;;;;5125636;27;41646;-73
2023/09/28 12:25:13;;;;;;;16.17;4.45;;;;;;;;;;5127406;27;41440;-73
2023/09/28 12:27:44;;;;;;;16.75;4.35;;;;;;;;;;5109329;27;41516;-72
2023/09/28 12:30:18;;;;;;;13.80;3.75;;;;;;;;;;5127141;27;43166;-73
2023/09/28 12:32:47;;;;;;;14.75;4.28;;;;;;;;;;5108888;27;39606;-73
2023/09/28 12:35:15;;;;;;;12.95;3.88;;;;;;;;;;5122594;27;42264;-73
2023/09/28 12:37:44;;;;;;;17.33;4.47;;;;;;;;;;5128031;27;43131;-73
2023/09/28 12:40:13;;;;;;;12.35;3.58;;;;;;;;;;5121424;27;42936;-73
2023/09/28 12:42:41;;;;;;;15.43;4.32;;;;;;;;;;5127991;27;42418;-73
2023/09/28 12:45:09;;;;;;;14.13;4.20;;;;;;;;;;5126940;27;41358;-73
2023/09/28 12:47:39;;;;;;;18.52;4.53;;;;;;;;;;5128169;27;41763;-73
2023/09/28 12:50:07;;;;;;;11.63;3.97;;;;;;;;;;5127600;27;42261;-74
2023/09/28 12:52:35;;;;;;;16.92;4.00;;;;;;;;;;5125044;27;41011;-73
2023/09/28 12:55:03;;;;;;;13.80;4.85;;;;;;;;;;5127878;27;41584;-73
2023/09/28 12:57:31;;;;;;;13.82;4.18;;;;;;;;;;5126985;27;41611;-73
2023/09/28 13:00:00;;;;;;;17.95;4.72;;;;;;;;;;5128672;27;41631;-73
2023/09/28 13:02:28;;;;;;;15.70;4.35;;;;;;;;;;5124636;27;42552;-74
2023/09/28 13:04:57;;;;;;;15.75;4.40;;;;;;;;;;5127642;27;42263;-73
2023/09/28 13:07:25;;;;;;;13.68;4.10;;;;;;;;;;5127663;27;41463;-72
2023/09/28 13:09:53;;;;;;;13.27;4.07;;;;;;;;;;5120579;27;41019;-73
2023/09/28 13:12:22;;;;;;;13.93;3.65;;;;;;;;;;5107147;27;40029;-73
2023/09/28 13:14:51;;;;;;;16.35;4.88;;;;;;;;;;5125458;27;41267;-73
2023/09/28 13:17:19;;;;;;;12.45;4.22;;;;;;;;;;5127643;27;42298;-73
2023/09/28 13:19:48;;;;;;;16.35;4.45;;;;;;;;;;5126501;27;40863;-73
2023/09/28 13:22:17;;;;;;;12.18;4.15;;;;;;;;;;5128098;27;41997;-72
2023/09/28 13:24:46;;;;;;;15.48;4.18;;;;;;;;;;5126993;27;41188;-72
2023/09/28 13:27:14;;;;;;;15.43;4.07;;;;;;;;;;5128082;27;42173;-73
2023/09/28 13:29:42;;;;;;;15.48;4.43;;;;;;;;;;5127293;27;42534;-73
2023/09/28 13:32:13;;;;;;;13.35;4.45;;;;;;;;;;5126407;27;41778;-73
2023/09/28 13:34:42;;;;;;;17.80;4.43;;;;;;;;;;5122062;27;41693;-72
2023/09/28 13:37:11;;;;;;;13.95;3.67;;;;;;;;;;5122563;27;41994;-72
2023/09/28 13:39:40;;;;;;;17.30;4.72;;;;;;;;;;5127038;27;41839;-72
2023/09/28 13:42:10;;;;;;;18.20;4.80;;;;;;;;;;5126660;27;41323;-73
2023/09/28 13:44:39;;;;;;;13.15;4.07;;;;;;;;;;5126699;27;41467;-72
2023/09/28 13:47:08;;;;;;;17.55;4.47;;;;;;;;;;5126251;27;42693;-72
2023/09/28 13:49:37;;;;;;;14.02;4.55;;;;;;;;;;5127348;27;43272;-73
2023/09/28 13:52:05;;;;;;;11.65;4.18;;;;;;;;;;5126683;27;41403;-72
2023/09/28 13:54:34;;;;;;;12.70;4.20;;;;;;;;;;5124557;27;41330;-72
2023/09/28 13:57:07;;;;;;;15.27;4.47;;;;;;;;;;5127763;27;42674;-72
2023/09/28 13:59:37;;;;;;;16.25;4.00;;;;;;;;;;5124302;27;41082;-72
2023/09/28 14:02:07;;;;;;;13.15;4.10;;;;;;;;;;5126909;27;42090;-71
2023/09/28 14:04:36;;;;;;;13.98;4.32;;;;;;;;;;5122799;27;42634;-72
2023/09/28 14:07:04;;;;;;;16.10;4.35;;;;;;;;;;5127079;27;41773;-72
2023/09/28 14:09:32;;;;;;;18.00;4.50;;;;;;;;;;5124943;27;42852;-71
2023/09/28 14:12:00;;;;;;;17.33;4.95;;;;;;;;;;5127528;27;41653;-72
2023/09/28 14:14:31;;;;;;;13.50;4.38;;;;;;;;;;5126423;27;42087;-72
2023/09/28 14:17:01;;;;;;;15.52;4.55;;;;;;;;;;5126348;27;42389;-72
2023/09/28 14:19:39;;;;;;;15.82;4.18;;;;;;;;;;5123863;27;41411;-73
2023/09/28 14:22:07;;;;;;;11.18;3.38;;;;;;;;;;5125593;27;42149;-73
2023/09/28 14:24:38;;;;;;;11.93;3.55;;;;;;;;;;5109157;27;40356;-73
2023/09/28 14:27:06;;;;;;;13.38;4.32;;;;;;;;;;5127057;27;41452;-73
2023/09/28 14:29:37;;;;;;;12.35;3.63;;;;;;;;;;5124931;27;42357;-73
2023/09/28 14:32:05;;;;;;;12.23;3.45;;;;;;;;;;5125719;27;41794;-73
2023/09/28 14:34:33;;;;;;;13.38;3.95;;;;;;;;;;5129940;27;42189;-73
2023/09/28 14:37:01;;;;;;;15.60;4.68;;;;;;;;;;5130237;27;43115;-73
2023/09/28 14:39:30;;;;;;;9.40;3.45;;;;;;;;;;5130057;27;41416;-73
2023/09/28 14:41:58;;;;;;;8.52;2.67;;;;;;;;;;5130437;27;41500;-73
2023/09/28 14:44:26;;;;;;;8.02;3.40;;;;;;;;;;5128898;27;41847;-73
2023/09/28 14:46:55;;;;;;;12.02;3.60;;;;;;;;;;5129105;27;41831;-73